Stuart Powell Field (DVK)

 

Airport Diagram
No Airport Diagram Available
Current Weather/Forecast (MVFR Conditions)
METAR KDVK 211355Z AUTO 00000KT 10SM SCT009 SCT014 OVC023 02/02 A2995 RMK AO2
TAF

Airport Information

All Charts
General
Chart Name View
TAKEOFF MINIMUMS
TAKEOFF MINIMUMS

Approaches
Chart Name Download
RNAV (GPS) RWY 12
RNAV (GPS) RWY 30
LOC RWY 30
NDB-A
RNAV (GPS) RWY 12
RNAV (GPS) RWY 30
LOC RWY 30
NDB-A


Airport Statistics
Departures Arrivals Local
All Collected Stats since June 2016: 7 4 0
2021 Stats: 0 0 0
January Stats: 0 0 0

Inbound Traffic (Arrivals) - 0

No inbound traffic.


Outbound Traffic (Departures) - 0

No outbound traffic.


Local Traffic (Pattern) - 0

No local traffic.